Terminal Aerodrome Forecast
Issued by NWS Duluth, MN

Home | Current Version | Previous Version | Text Only | Print | Product List | Glossary On
Versions: 1 2 3 4 5 6 7 8 9 10 11 12 13 14 15 16 17 18 19 20 21 22 23 24 25 26 27
000
FTUS43 KDLH 292100 AAB
TAFDLH
TAF AMD
KDLH 292141Z 2922/3018 30012G19KT P6SM VCSH SCT060 BKN100
      TEMPO 2922/2924 VRB16G30KT 6SM -TSRA BKN060CB
     FM300100 33005KT P6SM SCT060
     FM301500 32010KT P6SM SCT080=

USA.gov is the U.S. government's official web portal to all federal, state and local government web resources and services.